createdAt,value
2023-03-20T00:01:03.698Z,99708.34
2023-03-20T00:03:29.913Z,99768.09
2023-03-20T00:05:56.137Z,99779.06
2023-03-20T00:08:22.354Z,99796.25
2023-03-20T00:10:48.558Z,99872.81
2023-03-20T00:13:15.942Z,99841.53
2023-03-20T00:15:42.415Z,99847.78
2023-03-20T00:18:15.897Z,99886.66
2023-03-20T00:20:42.109Z,99886.59
2023-03-20T00:23:08.374Z,99884.47
2023-03-20T00:25:34.898Z,99836.56
2023-03-20T00:28:01.268Z,99717.53
2023-03-20T00:30:28.724Z,99608.16
2023-03-20T00:32:55.678Z,99507.19
2023-03-20T00:35:23.125Z,99374.97
2023-03-20T00:37:49.542Z,99245.22
2023-03-20T00:40:15.872Z,99132.66
2023-03-20T00:42:42.420Z,99017.97
2023-03-20T00:45:11.808Z,98922.03
2023-03-20T00:47:38.020Z,98837.53
2023-03-20T00:50:06.705Z,98749.94
2023-03-20T00:52:32.931Z,98663.91
2023-03-20T00:54:59.137Z,98590.84
2023-03-20T00:57:29.622Z,98518.06
2023-03-20T00:59:59.702Z,98437.25
2023-03-20T01:02:26.416Z,98358.78
2023-03-20T01:04:52.635Z,98277.09
2023-03-20T01:07:18.849Z,98211.34
2023-03-20T01:09:45.047Z,98138.84
2023-03-20T01:12:11.686Z,98054.59
2023-03-20T01:14:37.902Z,97991.47
2023-03-20T01:17:04.120Z,97919.44
2023-03-20T01:19:30.312Z,97791.06
2023-03-20T01:21:56.533Z,97729.00
2023-03-20T01:24:22.741Z,97669.69
2023-03-20T01:26:48.945Z,97617.72
2023-03-20T01:29:19.180Z,97552.75
2023-03-20T01:31:45.490Z,97488.72
2023-03-20T01:34:11.766Z,97473.44
2023-03-20T01:36:38.064Z,97402.94
2023-03-20T01:39:04.286Z,97381.56
2023-03-20T01:41:30.504Z,97347.78
2023-03-20T01:43:56.724Z,97331.72
2023-03-20T01:46:23.810Z,97294.13
2023-03-20T01:48:49.988Z,97267.81
2023-03-20T01:51:25.788Z,97244.75
2023-03-20T01:53:57.628Z,97217.84
2023-03-20T01:56:23.864Z,97237.13
2023-03-20T01:58:51.285Z,97239.09
2023-03-20T02:01:17.539Z,97250.09
2023-03-20T02:03:44.226Z,97250.88
2023-03-20T02:06:10.432Z,97261.88
2023-03-20T02:08:36.898Z,97264.47
2023-03-20T02:11:03.151Z,97269.53
2023-03-20T02:13:29.632Z,97270.13
2023-03-20T02:15:57.036Z,97280.22
2023-03-20T02:18:23.346Z,97301.31
2023-03-20T02:21:06.798Z,97320.59
2023-03-20T02:23:38.364Z,97327.44
2023-03-20T02:26:16.834Z,97345.47
2023-03-20T02:28:51.440Z,97364.56
2023-03-20T02:31:41.109Z,97371.91
2023-03-20T02:34:24.226Z,97389.94
2023-03-20T02:36:53.548Z,97413.47
2023-03-20T02:39:19.718Z,97454.06
2023-03-20T02:41:48.638Z,97490.13
2023-03-20T02:44:19.541Z,97519.69
2023-03-20T02:46:53.045Z,97571.56
2023-03-20T02:49:22.310Z,97598.66
2023-03-20T02:52:02.180Z,97642.91
2023-03-20T02:54:30.854Z,97675.34
2023-03-20T02:57:03.999Z,97697.59
2023-03-20T02:59:32.239Z,97711.66
2023-03-20T03:02:05.933Z,97751.38
2023-03-20T03:04:33.321Z,97774.75
2023-03-20T03:06:59.555Z,97789.88
2023-03-20T03:09:27.558Z,97795.06
2023-03-20T03:11:54.954Z,97807.75
2023-03-20T03:14:29.481Z,97813.13
2023-03-20T03:16:55.674Z,97836.19
2023-03-20T03:19:23.006Z,97864.91
2023-03-20T03:21:49.228Z,97883.84
2023-03-20T03:24:26.743Z,97903.28
2023-03-20T03:26:59.762Z,97929.25
2023-03-20T03:29:26.212Z,97937.34
2023-03-20T03:31:52.424Z,97950.31
2023-03-20T03:34:18.624Z,97980.72
2023-03-20T03:36:47.864Z,98005.91
2023-03-20T03:39:14.036Z,98031.59
2023-03-20T03:41:41.139Z,98049.03
2023-03-20T03:44:07.297Z,98074.22
2023-03-20T03:46:39.176Z,98090.31
2023-03-20T03:49:05.376Z,98100.69
2023-03-20T03:51:31.923Z,98105.13
2023-03-20T03:54:09.004Z,98108.94
2023-03-20T03:56:35.307Z,98116.28
2023-03-20T03:59:02.355Z,98116.28
2023-03-20T04:01:28.697Z,98118.56
2023-03-20T04:03:56.421Z,98119.03
2023-03-20T04:06:22.636Z,98126.34
2023-03-20T04:08:48.845Z,98122.69
2023-03-20T04:11:19.176Z,98108.16
2023-03-20T04:13:49.024Z,98085.38
2023-03-20T04:16:15.545Z,98066.44
2023-03-20T04:18:41.787Z,98062.78
2023-03-20T04:21:08.046Z,98133.00
2023-03-20T04:23:34.304Z,98189.84
2023-03-20T04:26:00.535Z,98232.47
2023-03-20T04:28:26.740Z,98270.31
2023-03-20T04:30:56.578Z,98310.91
2023-03-20T04:33:23.131Z,98341.78
2023-03-20T04:35:49.429Z,98359.47
2023-03-20T04:38:15.726Z,98366.22
2023-03-20T04:40:41.932Z,98358.44
2023-03-20T04:43:08.130Z,98349.88
2023-03-20T04:45:34.626Z,98358.16
2023-03-20T04:48:01.047Z,98369.88
2023-03-20T04:50:27.269Z,98383.06
2023-03-20T04:52:53.494Z,98377.88
2023-03-20T04:55:19.702Z,98389.59
2023-03-20T04:57:45.925Z,98401.81
2023-03-20T05:00:12.317Z,98427.78
2023-03-20T05:02:38.519Z,98466.50
2023-03-20T05:05:04.883Z,98496.88
2023-03-20T05:07:31.113Z,98525.47
2023-03-20T05:09:57.326Z,98544.69
2023-03-20T05:12:23.539Z,98560.28
2023-03-20T05:14:49.747Z,98628.34
2023-03-20T05:17:16.122Z,98673.56
2023-03-20T05:19:42.319Z,98680.84
2023-03-20T05:22:08.546Z,98677.97
2023-03-20T05:24:34.761Z,98679.03
2023-03-20T05:27:00.975Z,98685.00
2023-03-20T05:29:27.174Z,98709.09
2023-03-20T05:31:53.376Z,98728.63
2023-03-20T05:34:19.626Z,98732.25
2023-03-20T05:36:45.829Z,98730.19
2023-03-20T05:39:12.045Z,98739.03
2023-03-20T05:41:38.307Z,98771.78
2023-03-20T05:44:04.568Z,98779.31
2023-03-20T05:46:30.845Z,98782.44
2023-03-20T05:48:57.100Z,98808.97
2023-03-20T05:51:23.294Z,98824.03
2023-03-20T05:53:49.516Z,98884.03
2023-03-20T05:56:15.711Z,98907.16
2023-03-20T05:58:43.625Z,98934.94
2023-03-20T06:01:09.839Z,98966.13
2023-03-20T06:03:36.088Z,98980.16
2023-03-20T06:06:02.616Z,98992.09
2023-03-20T06:08:28.826Z,99037.56
2023-03-20T06:10:55.018Z,99056.00
2023-03-20T06:13:21.218Z,99098.09
2023-03-20T06:15:47.477Z,99129.28
2023-03-20T06:18:13.702Z,99159.72
2023-03-20T06:20:39.901Z,99194.78
2023-03-20T06:23:06.116Z,99218.97
2023-03-20T06:25:32.392Z,99258.75
2023-03-20T06:27:58.610Z,99272.53
2023-03-20T06:30:24.805Z,99321.16
2023-03-20T06:32:51.056Z,99354.97
2023-03-20T06:35:17.274Z,99371.09
2023-03-20T06:37:43.479Z,99394.25
2023-03-20T06:40:09.918Z,99412.16
2023-03-20T06:42:36.137Z,99420.25
2023-03-20T06:45:02.350Z,99424.41
2023-03-20T06:47:28.564Z,99427.00
2023-03-20T06:49:54.780Z,99444.69
2023-03-20T06:52:20.975Z,99474.28
2023-03-20T06:54:47.195Z,99465.47
2023-03-20T06:57:15.293Z,99478.69
2023-03-20T06:59:41.657Z,99460.75
2023-03-20T07:02:07.890Z,99456.03
2023-03-20T07:04:34.162Z,99438.13
2023-03-20T07:07:00.390Z,99439.38
2023-03-20T07:09:26.639Z,99418.78
2023-03-20T07:11:52.839Z,99395.91
2023-03-20T07:14:19.038Z,99374.09
2023-03-20T07:16:45.310Z,99351.97
2023-03-20T07:19:11.550Z,99329.88
2023-03-20T07:21:37.786Z,99303.91
2023-03-20T07:24:04.026Z,99295.84
2023-03-20T07:26:30.231Z,99282.84
2023-03-20T07:28:56.463Z,99276.63
2023-03-20T07:31:26.532Z,99285.72
2023-03-20T07:33:52.781Z,99284.16
2023-03-20T07:36:18.990Z,99290.63
2023-03-20T07:38:45.208Z,99271.66
2023-03-20T07:41:11.442Z,99262.53
2023-03-20T07:43:37.892Z,99247.22
2023-03-20T07:46:04.734Z,99221.50
2023-03-20T07:48:30.999Z,99228.47
2023-03-20T07:50:57.208Z,99200.75
2023-03-20T07:53:23.437Z,99191.38
2023-03-20T07:55:49.641Z,99184.34
2023-03-20T07:58:15.856Z,99200.44
2023-03-20T08:00:42.067Z,99200.72
2023-03-20T08:03:08.393Z,99225.94
2023-03-20T08:05:34.827Z,99222.78
2023-03-20T08:08:01.346Z,99207.72
2023-03-20T08:10:27.727Z,99201.75
2023-03-20T08:12:54.019Z,99196.56
2023-03-20T08:15:20.244Z,99183.56
2023-03-20T08:17:46.453Z,99200.75
2023-03-20T08:20:13.116Z,99198.88
2023-03-20T08:22:39.320Z,99188.00
2023-03-20T08:25:05.748Z,99193.94
2023-03-20T08:27:31.961Z,99188.75
2023-03-20T08:29:58.188Z,99181.19
2023-03-20T08:32:24.381Z,99193.19
2023-03-20T08:34:50.588Z,99200.22
2023-03-20T08:37:16.887Z,99212.44
2023-03-20T08:39:43.090Z,99253.50
2023-03-20T08:42:09.290Z,99276.91
2023-03-20T08:44:35.502Z,99321.38
2023-03-20T08:47:01.714Z,99323.94
2023-03-20T08:49:27.972Z,99342.69
2023-03-20T08:51:54.203Z,99381.88
2023-03-20T08:54:20.406Z,99371.78
2023-03-20T08:56:46.616Z,99360.09
2023-03-20T08:59:12.833Z,99409.44
2023-03-20T09:01:49.253Z,99410.78
2023-03-20T09:04:16.501Z,99445.63
2023-03-20T09:06:42.711Z,99485.66
2023-03-20T09:09:08.930Z,99482.09
2023-03-20T09:11:35.139Z,99511.97
2023-03-20T09:14:01.354Z,99559.56
2023-03-20T09:16:27.612Z,99594.72
2023-03-20T09:18:53.879Z,99616.88
2023-03-20T09:21:20.089Z,99673.63
2023-03-20T09:23:46.295Z,99691.88
2023-03-20T09:26:12.516Z,99700.78
2023-03-20T09:28:38.716Z,99727.41
2023-03-20T09:31:05.036Z,99764.81
2023-03-20T09:33:31.268Z,99797.16
2023-03-20T09:35:57.505Z,99821.59
2023-03-20T09:38:23.748Z,99880.81
2023-03-20T09:40:56.815Z,99883.78
2023-03-20T09:43:26.938Z,99920.69
2023-03-20T09:46:15.024Z,99944.13
2023-03-20T09:48:44.168Z,99999.38
2023-03-20T09:51:14.526Z,100019.94
2023-03-20T09:53:41.055Z,100030.66
2023-03-20T09:56:10.613Z,100045.53
2023-03-20T09:58:36.822Z,100076.22
2023-03-20T10:01:03.873Z,100086.81
2023-03-20T10:03:42.385Z,100107.31
2023-03-20T10:06:12.357Z,100153.72
2023-03-20T10:08:38.576Z,100158.34
2023-03-20T10:11:06.730Z,100166.25
2023-03-20T10:13:51.235Z,100182.66
2023-03-20T10:16:36.919Z,100212.19
2023-03-20T10:19:05.982Z,100219.97
2023-03-20T10:21:45.080Z,100257.53
2023-03-20T10:24:14.558Z,100274.75
2023-03-20T10:26:40.770Z,100284.63
2023-03-20T10:29:25.714Z,100299.97
2023-03-20T10:32:01.644Z,100312.88
2023-03-20T10:34:48.574Z,100328.97
2023-03-20T10:37:28.666Z,100331.34
2023-03-20T10:40:04.588Z,100329.34
2023-03-20T10:42:32.416Z,100348.44
2023-03-20T10:44:59.440Z,100360.00
2023-03-20T10:47:26.798Z,100368.72
2023-03-20T10:49:54.319Z,100369.78
2023-03-20T10:52:22.449Z,100405.44
2023-03-20T10:54:49.898Z,100403.38
2023-03-20T10:57:18.271Z,100416.66
2023-03-20T10:59:45.078Z,100410.56
2023-03-20T11:02:11.574Z,100412.31
2023-03-20T11:04:37.963Z,100428.72
2023-03-20T11:07:12.017Z,100424.88
2023-03-20T11:09:38.249Z,100445.13
2023-03-20T11:12:04.467Z,100421.25
2023-03-20T11:14:37.473Z,100426.13
2023-03-20T11:17:04.010Z,100449.41
2023-03-20T11:19:34.089Z,100440.09
2023-03-20T11:22:00.934Z,100440.94
2023-03-20T11:24:33.401Z,100439.75
2023-03-20T11:27:06.416Z,100445.38
2023-03-20T11:29:32.612Z,100457.88
2023-03-20T11:32:14.394Z,100453.66
2023-03-20T11:34:40.634Z,100440.41
2023-03-20T11:37:10.425Z,100418.78
2023-03-20T11:39:37.091Z,100435.78
2023-03-20T11:42:03.312Z,100432.59
2023-03-20T11:44:33.330Z,100414.69
2023-03-20T11:47:00.551Z,100404.97
2023-03-20T11:49:26.870Z,100414.91
2023-03-20T11:51:53.154Z,100399.19
2023-03-20T11:54:20.581Z,100400.53
2023-03-20T11:56:54.254Z,100383.03
2023-03-20T11:59:20.469Z,100393.75
2023-03-20T12:01:47.575Z,100383.31
2023-03-20T12:04:15.555Z,100392.19
2023-03-20T12:06:46.417Z,100375.81
2023-03-20T12:09:17.408Z,100376.72
2023-03-20T12:11:45.590Z,100372.31
2023-03-20T12:14:15.758Z,100341.66
2023-03-20T12:16:41.950Z,100348.25
2023-03-20T12:19:12.472Z,100330.16
2023-03-20T12:21:38.628Z,100300.88
2023-03-20T12:24:09.110Z,100272.25
2023-03-20T12:26:36.138Z,100279.03
2023-03-20T12:29:04.614Z,100288.63
2023-03-20T12:31:49.728Z,100290.75
2023-03-20T12:34:23.972Z,100293.66
2023-03-20T12:36:50.615Z,100286.47
2023-03-20T12:39:17.418Z,100278.00
2023-03-20T12:41:46.576Z,100274.84
2023-03-20T12:44:18.703Z,100255.47
2023-03-20T12:46:51.508Z,100260.91
2023-03-20T12:49:23.763Z,100252.31
2023-03-20T12:51:55.950Z,100252.44
2023-03-20T12:54:33.161Z,100237.53
2023-03-20T12:57:04.923Z,100241.25
2023-03-20T12:59:49.392Z,100228.41
2023-03-20T13:02:18.673Z,100221.63
2023-03-20T13:04:56.634Z,100201.59
2023-03-20T13:07:27.921Z,100203.16
2023-03-20T13:10:23.669Z,100208.75
2023-03-20T13:12:52.608Z,100212.88
2023-03-20T13:15:24.878Z,100223.09
2023-03-20T13:17:59.946Z,100211.56
2023-03-20T13:20:26.644Z,100219.81
2023-03-20T13:23:02.297Z,100226.97
2023-03-20T13:25:47.049Z,100242.44
2023-03-20T13:28:19.028Z,100250.25
2023-03-20T13:30:53.888Z,100279.84
2023-03-20T13:33:38.492Z,100295.44
2023-03-20T13:36:07.300Z,100294.22
2023-03-20T13:38:34.194Z,100299.59
2023-03-20T13:41:00.908Z,100299.50
2023-03-20T13:43:28.660Z,100303.88
2023-03-20T13:46:15.112Z,100298.38
2023-03-20T13:48:41.874Z,100306.09
2023-03-20T13:51:11.086Z,100308.00
2023-03-20T13:53:55.929Z,100306.41
2023-03-20T13:56:37.424Z,100295.34
2023-03-20T13:59:03.635Z,100287.31
2023-03-20T14:01:41.243Z,100287.41
2023-03-20T14:04:14.672Z,100287.00
2023-03-20T14:06:45.387Z,100285.56
2023-03-20T14:09:26.659Z,100289.13
2023-03-20T14:11:53.674Z,100294.50
2023-03-20T14:14:24.117Z,100288.84
2023-03-20T14:16:59.766Z,100293.72
2023-03-20T14:19:25.970Z,100300.88
2023-03-20T14:21:55.019Z,100293.63
2023-03-20T14:24:21.323Z,100295.06
2023-03-20T14:26:48.245Z,100288.72
2023-03-20T14:29:14.402Z,100278.00
2023-03-20T14:31:40.625Z,100283.69
2023-03-20T14:34:12.831Z,100256.00
2023-03-20T14:36:51.193Z,100259.88
2023-03-20T14:39:22.660Z,100280.81
2023-03-20T14:41:54.493Z,100295.38
2023-03-20T14:44:26.769Z,100282.53
2023-03-20T14:47:00.839Z,100302.91
2023-03-20T14:49:29.820Z,100308.94
2023-03-20T14:52:00.447Z,100297.63
2023-03-20T14:54:30.009Z,100287.03
2023-03-20T14:56:56.258Z,100276.72
2023-03-20T14:59:23.006Z,100262.63
2023-03-20T15:01:58.952Z,100253.38
2023-03-20T15:04:35.811Z,100242.72
2023-03-20T15:07:15.381Z,100221.69
2023-03-20T15:09:42.636Z,100196.31
2023-03-20T15:12:09.483Z,100188.69
2023-03-20T15:14:45.880Z,100190.16
2023-03-20T15:17:41.714Z,100178.47
2023-03-20T15:20:12.913Z,100193.31
2023-03-20T15:22:49.224Z,100200.31
2023-03-20T15:25:16.639Z,100199.66
2023-03-20T15:27:42.846Z,100200.25
2023-03-20T15:30:09.932Z,100204.66
2023-03-20T15:32:36.245Z,100222.09
2023-03-20T15:35:03.750Z,100237.22
2023-03-20T15:37:29.951Z,100244.66
2023-03-20T15:39:56.187Z,100264.44
2023-03-20T15:42:24.011Z,100256.63
2023-03-20T15:44:51.586Z,100258.41
2023-03-20T15:47:18.482Z,100255.28
2023-03-20T15:49:48.187Z,100258.22
2023-03-20T15:52:21.913Z,100259.16
2023-03-20T15:54:48.332Z,100256.69
2023-03-20T15:57:18.277Z,100276.50
2023-03-20T15:59:44.486Z,100292.09
2023-03-20T16:02:11.001Z,100295.59
2023-03-20T16:04:37.278Z,100303.88
2023-03-20T16:07:04.074Z,100308.28
2023-03-20T16:09:30.288Z,100305.69
2023-03-20T16:12:00.451Z,100318.59
2023-03-20T16:14:27.510Z,100321.50
2023-03-20T16:16:54.220Z,100314.16
2023-03-20T16:19:20.450Z,100302.09
2023-03-20T16:21:48.412Z,100298.03
2023-03-20T16:24:18.791Z,100293.34
2023-03-20T16:26:45.406Z,100266.97
2023-03-20T16:29:13.254Z,100253.97
2023-03-20T16:31:41.365Z,100233.63
2023-03-20T16:34:08.344Z,100219.06
2023-03-20T16:36:37.752Z,100197.97
2023-03-20T16:39:03.906Z,100186.44
2023-03-20T16:41:30.972Z,100172.19
2023-03-20T16:43:57.195Z,100157.25
2023-03-20T16:46:24.186Z,100138.28
2023-03-20T16:48:51.402Z,100117.03
2023-03-20T16:51:20.289Z,100103.69
2023-03-20T16:53:47.277Z,100081.09
2023-03-20T16:56:14.302Z,100057.69
2023-03-20T16:58:40.518Z,100043.13
2023-03-20T17:01:07.508Z,100028.03
2023-03-20T17:03:42.789Z,100024.63
2023-03-20T17:06:21.123Z,100021.78
2023-03-20T17:08:50.918Z,100027.28
2023-03-20T17:11:23.284Z,100023.09
2023-03-20T17:13:49.504Z,100020.75
2023-03-20T17:16:16.653Z,100025.69
2023-03-20T17:18:44.457Z,100031.69
2023-03-20T17:21:10.669Z,100024.13
2023-03-20T17:23:36.879Z,100025.69
2023-03-20T17:26:03.092Z,100025.69
2023-03-20T17:28:31.298Z,100026.50
2023-03-20T17:30:57.508Z,100035.06
2023-03-20T17:33:23.733Z,100051.81
2023-03-20T17:35:49.975Z,100080.41
2023-03-20T17:38:17.063Z,100102.28
2023-03-20T17:40:43.291Z,100098.59
2023-03-20T17:43:10.600Z,100102.47
2023-03-20T17:45:36.845Z,100097.97
2023-03-20T17:48:03.120Z,100122.38
2023-03-20T17:50:29.342Z,100117.19
2023-03-20T17:52:55.554Z,100120.81
2023-03-20T17:55:21.943Z,100122.06
2023-03-20T17:57:48.257Z,100129.41
2023-03-20T18:00:21.840Z,100128.84
2023-03-20T18:02:48.096Z,100139.25
2023-03-20T18:05:14.332Z,100125.13
2023-03-20T18:07:40.562Z,100122.22
2023-03-20T18:10:06.973Z,100126.34
2023-03-20T18:12:33.183Z,100127.97
2023-03-20T18:14:59.401Z,100128.19
2023-03-20T18:17:25.607Z,100136.00
2023-03-20T18:19:51.836Z,100134.41
2023-03-20T18:22:18.081Z,100138.81
2023-03-20T18:24:45.642Z,100143.00
2023-03-20T18:27:11.939Z,100140.63
2023-03-20T18:29:38.146Z,100152.84
2023-03-20T18:32:04.388Z,100144.50
2023-03-20T18:34:30.606Z,100141.91
2023-03-20T18:36:56.816Z,100137.72
2023-03-20T18:39:23.619Z,100141.44
2023-03-20T18:41:50.036Z,100133.06
2023-03-20T18:44:16.480Z,100129.69
2023-03-20T18:46:42.752Z,100125.75
2023-03-20T18:49:13.708Z,100117.94
2023-03-20T18:51:39.908Z,100103.16
2023-03-20T18:54:06.121Z,100097.38
2023-03-20T18:56:32.340Z,100093.22
2023-03-20T18:58:58.551Z,100082.13
2023-03-20T19:01:24.791Z,100082.34
2023-03-20T19:03:51.019Z,100076.59
2023-03-20T19:06:18.308Z,100081.00
2023-03-20T19:08:44.667Z,100072.44
2023-03-20T19:11:10.870Z,100063.84
2023-03-20T19:13:37.243Z,100053.44
2023-03-20T19:16:03.556Z,100055.25
2023-03-20T19:18:29.778Z,100044.34
2023-03-20T19:20:56.527Z,100042.75
2023-03-20T19:23:23.408Z,100030.56
2023-03-20T19:25:50.371Z,100018.56
2023-03-20T19:28:21.962Z,100007.19
2023-03-20T19:30:50.083Z,100000.38
2023-03-20T19:33:16.301Z,99989.19
2023-03-20T19:36:11.358Z,99979.38
2023-03-20T19:38:28.714Z,99964.00
2023-03-20T19:40:54.938Z,99950.44
2023-03-20T19:43:21.380Z,99922.41
2023-03-20T19:45:47.607Z,99916.91
2023-03-20T19:48:15.342Z,99913.75
2023-03-20T19:50:43.709Z,99897.94
2023-03-20T19:53:10.470Z,99888.03
2023-03-20T19:55:37.347Z,99874.19
2023-03-20T19:58:03.964Z,99852.84
2023-03-20T20:01:00.389Z,99833.28
2023-03-20T20:03:23.500Z,99791.97
2023-03-20T20:05:49.765Z,99776.06
2023-03-20T20:08:31.020Z,99748.75
2023-03-20T20:11:02.468Z,99720.69
2023-03-20T20:13:29.440Z,99678.13
2023-03-20T20:15:55.678Z,99653.66
2023-03-20T20:18:22.299Z,99636.69
2023-03-20T20:21:31.967Z,99620.38
2023-03-20T20:23:34.755Z,99597.50
2023-03-20T20:26:00.968Z,99579.88
2023-03-20T20:28:27.296Z,99550.00
2023-03-20T20:30:54.415Z,99522.22
2023-03-20T20:33:20.666Z,99497.53
2023-03-20T20:36:19.999Z,99456.72
2023-03-20T20:38:49.502Z,99427.38
2023-03-20T20:41:16.521Z,99385.84
2023-03-20T20:44:14.189Z,99352.34
2023-03-20T20:46:28.960Z,99301.50
2023-03-20T20:48:55.193Z,99275.53
2023-03-20T20:51:21.409Z,99234.25
2023-03-20T20:53:47.604Z,99195.31
2023-03-20T20:56:13.830Z,99173.28
2023-03-20T20:58:40.059Z,99144.72
2023-03-20T21:01:06.348Z,99123.47
2023-03-20T21:03:32.582Z,99109.69
2023-03-20T21:06:03.292Z,99089.72
2023-03-20T21:08:30.075Z,99069.22
2023-03-20T21:10:56.337Z,99051.56
2023-03-20T21:13:22.550Z,99035.72
2023-03-20T21:15:56.347Z,99018.88
2023-03-20T21:18:22.588Z,99007.97
2023-03-20T21:20:48.792Z,98980.69
2023-03-20T21:23:15.004Z,98953.97
2023-03-20T21:25:43.584Z,98929.56
2023-03-20T21:28:11.800Z,98917.13
2023-03-20T21:31:12.433Z,98886.75
2023-03-20T21:33:34.290Z,98871.44
2023-03-20T21:36:00.522Z,98882.03
2023-03-20T21:41:12.938Z,98908.03
2023-03-20T21:43:39.206Z,98938.91
2023-03-20T21:49:47.120Z,98996.56
2023-03-20T22:01:00.802Z,99056.03
2023-03-20T22:02:46.043Z,99059.63
2023-03-20T22:08:48.609Z,99064.06
2023-03-20T22:22:48.653Z,98945.16
2023-03-20T22:33:58.441Z,98806.03
2023-03-20T22:36:32.027Z,98765.28
2023-03-20T22:44:47.749Z,98651.63
2023-03-20T22:46:51.755Z,98609.84
2023-03-20T22:49:18.009Z,98582.09
2023-03-20T22:52:04.780Z,98559.00
2023-03-20T22:54:30.405Z,98534.88
2023-03-20T22:56:56.621Z,98512.28
2023-03-20T22:59:22.841Z,98502.13
2023-03-20T23:01:49.047Z,98487.84
2023-03-20T23:04:15.278Z,98479.84
2023-03-20T23:06:41.496Z,98466.81
2023-03-20T23:09:15.054Z,98474.38
2023-03-20T23:11:41.843Z,98462.69
2023-03-20T23:14:18.256Z,98469.19
2023-03-20T23:16:46.269Z,98476.44
2023-03-20T23:19:12.534Z,98457.72
2023-03-20T23:21:38.727Z,98469.91
2023-03-20T23:24:05.017Z,98479.25
2023-03-20T23:26:31.221Z,98497.16
2023-03-20T23:28:57.443Z,98495.06
2023-03-20T23:31:24.257Z,98524.13
2023-03-20T23:33:54.342Z,98539.69
2023-03-20T23:36:34.947Z,98565.91
2023-03-20T23:39:01.970Z,98575.53
2023-03-20T23:41:53.637Z,98584.09
2023-03-20T23:44:14.365Z,98599.13
2023-03-20T23:46:40.566Z,98611.31
2023-03-20T23:49:06.788Z,98630.53
2023-03-20T23:51:32.999Z,98632.34
2023-03-20T23:53:59.219Z,98647.94
2023-03-20T23:56:25.439Z,98657.53
2023-03-20T23:58:59.660Z,98658.81
